Time;durP1;ratioP1;P1;durP2;ratioP2;P2;SDS_P1;SDS_P2;PMS_P1;PMS_P2;Temp;Humidity;BMP_temperature;BMP_pressure;BME280_temperature;BME280_humidity;BME280_pressure;Samples;Min_cycle;Max_cycle;Signal;HPM_P1;HPM_P2
2022/04/29 00:00:18;;;;;;;0.30;0.10;;;6.00;99.90;;;;;;5119473;28;20555;-90
2022/04/29 00:02:46;;;;;;;0.30;0.10;;;6.10;99.90;;;;;;5117106;28;20472;-90
2022/04/29 00:05:14;;;;;;;0.30;0.10;;;6.10;99.90;;;;;;5113051;27;21289;-90
2022/04/29 00:07:42;;;;;;;0.60;0.20;;;6.10;99.90;;;;;;5120567;28;20446;-90
2022/04/29 00:10:12;;;;;;;0.67;0.67;;;6.00;99.90;;;;;;5111996;28;20480;-90
2022/04/29 00:12:39;;;;;;;0.30;0.20;;;5.90;99.90;;;;;;5097120;28;20463;-90
2022/04/29 00:15:07;;;;;;;0.30;0.10;;;5.90;99.90;;;;;;5090705;28;20520;-90
2022/04/29 00:17:36;;;;;;;0.30;0.20;;;5.80;99.90;;;;;;5107330;28;20466;-91
2022/04/29 00:20:04;;;;;;;0.30;0.20;;;5.70;99.90;;;;;;5106180;28;20523;-90
2022/04/29 00:22:31;;;;;;;0.50;0.50;;;5.70;99.90;;;;;;5105734;28;20465;-91
2022/04/29 00:24:58;;;;;;;0.40;0.40;;;5.60;99.90;;;;;;5104169;28;20485;-90
2022/04/29 00:27:25;;;;;;;0.40;0.33;;;5.50;99.90;;;;;;5102911;28;20502;-91
2022/04/29 00:29:52;;;;;;;0.30;0.10;;;5.40;99.90;;;;;;5103555;28;20455;-90
2022/04/29 00:32:20;;;;;;;0.30;0.10;;;5.40;99.90;;;;;;5106741;28;20824;-91
2022/04/29 00:34:48;;;;;;;0.30;0.20;;;5.40;99.90;;;;;;5093780;28;20562;-91
2022/04/29 00:37:15;;;;;;;0.30;0.10;;;5.30;99.90;;;;;;5101656;28;20535;-91
2022/04/29 00:39:42;;;;;;;0.40;0.20;;;5.30;99.90;;;;;;5092149;28;20898;-91
2022/04/29 00:42:13;;;;;;;0.60;0.30;;;5.30;99.90;;;;;;5091360;27;20455;-90
2022/04/29 00:44:40;;;;;;;0.30;0.10;;;5.20;99.90;;;;;;5088535;28;20843;-90
2022/04/29 00:47:09;;;;;;;0.30;0.20;;;5.10;99.90;;;;;;5099763;28;20553;-90
2022/04/29 00:49:36;;;;;;;0.30;0.10;;;5.20;99.90;;;;;;5091025;28;20470;-91
2022/04/29 00:52:07;;;;;;;0.43;0.43;;;5.20;99.90;;;;;;5088432;28;20527;-91
2022/04/29 00:54:38;;;;;;;0.40;0.27;;;5.20;99.90;;;;;;5092005;28;20501;-91
2022/04/29 00:57:08;;;;;;;0.50;0.40;;;5.10;99.90;;;;;;5087714;28;20456;-91
2022/04/29 00:59:54;;;;;;;1.60;0.93;;;5.20;99.90;;;;;;5090317;28;20492;-91
2022/04/29 01:02:21;;;;;;;0.30;0.10;;;5.20;99.90;;;;;;5094307;28;20517;-91
2022/04/29 01:04:55;;;;;;;1.33;0.60;;;5.30;99.90;;;;;;5087613;28;20528;-90
2022/04/29 01:07:23;;;;;;;0.30;0.20;;;5.40;99.90;;;;;;5094833;28;20457;-90
2022/04/29 01:09:50;;;;;;;0.40;0.30;;;5.40;99.90;;;;;;5089406;28;20458;-91
2022/04/29 01:12:17;;;;;;;0.30;0.20;;;5.30;99.90;;;;;;5093182;28;20461;-91
2022/04/29 01:14:44;;;;;;;0.30;0.20;;;5.30;99.90;;;;;;5089398;28;20523;-90
2022/04/29 01:17:12;;;;;;;0.30;0.20;;;5.30;99.90;;;;;;5087238;28;20948;-90
2022/04/29 01:19:39;;;;;;;0.30;0.10;;;5.20;99.90;;;;;;5086563;28;20577;-91
2022/04/29 01:22:08;;;;;;;0.50;0.30;;;5.40;99.90;;;;;;5087652;28;20470;-90
2022/04/29 01:24:35;;;;;;;0.30;0.20;;;5.40;99.90;;;;;;5089979;28;21262;-91
2022/04/29 01:27:09;;;;;;;0.30;0.10;;;5.30;99.90;;;;;;5100013;28;20552;-91
2022/04/29 01:29:36;;;;;;;0.30;0.20;;;5.10;99.90;;;;;;5118897;28;20449;-91
2022/04/29 01:32:04;;;;;;;0.30;0.10;;;5.00;99.90;;;;;;5116137;28;20458;-91
2022/04/29 01:34:31;;;;;;;0.30;0.20;;;4.90;99.90;;;;;;5117951;28;20459;-91
2022/04/29 01:36:58;;;;;;;0.37;0.30;;;4.70;99.90;;;;;;5098633;28;20587;-91
2022/04/29 01:39:27;;;;;;;0.30;0.20;;;4.70;99.90;;;;;;5096345;28;20458;-91
2022/04/29 01:41:54;;;;;;;0.30;0.20;;;4.70;99.90;;;;;;5090884;28;20443;-91
2022/04/29 01:44:21;;;;;;;0.40;0.30;;;4.70;99.90;;;;;;5097333;28;20450;-91
2022/04/29 01:46:48;;;;;;;0.30;0.20;;;4.60;99.90;;;;;;5089041;28;20619;-91
2022/04/29 01:49:15;;;;;;;0.63;0.63;;;4.60;99.90;;;;;;5100845;28;20945;-92
2022/04/29 01:51:42;;;;;;;0.30;0.17;;;4.50;99.90;;;;;;5097415;28;20446;-92
2022/04/29 01:54:11;;;;;;;0.67;0.40;;;4.50;99.90;;;;;;5094103;28;20499;-92
2022/04/29 01:56:40;;;;;;;0.30;0.10;;;4.50;99.90;;;;;;5090982;28;20465;-91
2022/04/29 01:59:07;;;;;;;0.30;0.20;;;4.60;99.90;;;;;;5098570;27;20486;-91
2022/04/29 02:01:35;;;;;;;0.30;0.20;;;4.60;99.90;;;;;;5096589;28;20461;-91
2022/04/29 02:04:02;;;;;;;0.30;0.10;;;4.60;99.90;;;;;;5088907;28;21076;-91
2022/04/29 02:06:29;;;;;;;0.30;0.10;;;4.60;99.90;;;;;;5092447;28;20493;-91
2022/04/29 02:08:56;;;;;;;0.30;0.20;;;4.50;99.90;;;;;;5092565;28;20538;-91
2022/04/29 02:11:23;;;;;;;0.30;0.20;;;4.50;99.90;;;;;;5097147;28;20542;-91
2022/04/29 02:13:53;;;;;;;0.60;0.50;;;4.50;99.90;;;;;;5094853;28;20519;-91
2022/04/29 02:16:20;;;;;;;0.30;0.17;;;4.40;99.90;;;;;;5097383;28;20463;-91
2022/04/29 02:18:47;;;;;;;0.30;0.20;;;4.40;99.90;;;;;;5096392;28;20468;-91
2022/04/29 02:21:15;;;;;;;0.30;0.10;;;4.40;99.90;;;;;;5100618;28;21015;-90
2022/04/29 02:23:43;;;;;;;0.30;0.20;;;4.40;99.90;;;;;;5098683;28;20463;-92
2022/04/29 02:26:10;;;;;;;0.30;0.10;;;4.30;99.90;;;;;;5088524;28;20961;-91
2022/04/29 02:28:37;;;;;;;0.40;0.20;;;4.20;99.90;;;;;;5093896;28;20810;-91
2022/04/29 02:31:05;;;;;;;0.30;0.10;;;4.20;99.90;;;;;;5093186;28;20451;-91
2022/04/29 02:33:32;;;;;;;0.30;0.10;;;4.20;99.90;;;;;;5092954;28;20970;-91
2022/04/29 02:36:01;;;;;;;0.30;0.20;;;4.20;99.90;;;;;;5100340;28;20462;-91
2022/04/29 02:38:28;;;;;;;0.30;0.10;;;4.10;99.90;;;;;;5095574;28;20446;-90
2022/04/29 02:40:55;;;;;;;0.30;0.13;;;4.00;99.90;;;;;;5096307;28;20573;-91
2022/04/29 02:43:22;;;;;;;0.40;0.37;;;3.90;99.90;;;;;;5090474;28;20452;-91
2022/04/29 02:45:50;;;;;;;0.30;0.10;;;3.90;99.90;;;;;;5095381;28;20495;-91
2022/04/29 02:48:19;;;;;;;0.60;0.60;;;3.80;99.90;;;;;;5091749;28;20462;-91
2022/04/29 02:50:46;;;;;;;0.30;0.10;;;3.80;99.90;;;;;;5098112;28;20506;-91
2022/04/29 02:53:13;;;;;;;0.30;0.20;;;3.70;99.90;;;;;;5114628;28;20483;-91
2022/04/29 02:55:40;;;;;;;0.30;0.20;;;3.70;99.90;;;;;;5111270;28;20503;-91
2022/04/29 02:58:07;;;;;;;0.33;0.17;;;3.70;99.90;;;;;;5104493;28;20493;-91
2022/04/29 03:00:34;;;;;;;0.30;0.10;;;3.70;99.90;;;;;;5089615;28;20910;-91
2022/04/29 03:03:01;;;;;;;0.30;0.20;;;3.60;99.90;;;;;;5091142;28;20466;-91
2022/04/29 03:05:29;;;;;;;0.30;0.20;;;3.70;99.90;;;;;;5095225;28;20434;-91
2022/04/29 03:07:56;;;;;;;0.30;0.27;;;3.80;99.90;;;;;;5116180;28;20446;-91
2022/04/29 03:10:23;;;;;;;0.40;0.30;;;3.80;99.90;;;;;;5114939;28;20486;-90
2022/04/29 03:12:50;;;;;;;0.30;0.20;;;3.80;99.90;;;;;;5103167;28;20972;-90
2022/04/29 03:15:18;;;;;;;0.30;0.10;;;3.80;99.90;;;;;;5091491;28;20455;-91
2022/04/29 03:20:38;;;;;;;0.43;0.37;;;3.80;99.90;;;;;;5096818;28;20520;-91
2022/04/29 03:23:05;;;;;;;0.30;0.10;;;3.90;99.90;;;;;;5098489;28;20519;-91
2022/04/29 03:25:33;;;;;;;0.30;0.20;;;3.90;99.90;;;;;;5094302;28;20462;-91
2022/04/29 03:28:00;;;;;;;0.30;0.17;;;3.80;99.90;;;;;;5092274;28;20538;-91
2022/04/29 03:30:28;;;;;;;0.30;0.20;;;3.90;99.90;;;;;;5102434;28;21014;-91
2022/04/29 03:32:55;;;;;;;0.30;0.10;;;4.00;99.90;;;;;;5103775;28;21077;-91
2022/04/29 03:35:23;;;;;;;0.30;0.20;;;3.90;99.90;;;;;;5104677;28;20470;-91
2022/04/29 03:37:52;;;;;;;0.60;0.60;;;4.00;99.90;;;;;;5104949;28;20470;-91
2022/04/29 03:40:21;;;;;;;0.30;0.20;;;4.00;99.90;;;;;;5098353;28;20465;-90
2022/04/29 03:42:48;;;;;;;0.30;0.10;;;4.10;99.90;;;;;;5101859;28;20483;-91
2022/04/29 03:45:16;;;;;;;1.93;1.80;;;4.10;99.90;;;;;;5095777;28;20611;-90
2022/04/29 03:47:43;;;;;;;0.30;0.10;;;4.00;99.90;;;;;;5098630;28;20494;-90
2022/04/29 03:50:10;;;;;;;0.30;0.20;;;4.00;99.90;;;;;;5101446;28;20522;-91
2022/04/29 03:52:47;;;;;;;0.30;0.10;;;4.00;99.90;;;;;;5100509;28;20484;-91
2022/04/29 03:55:16;;;;;;;0.30;0.20;;;4.10;99.90;;;;;;5102083;28;21341;-91
2022/04/29 03:57:43;;;;;;;0.30;0.17;;;4.20;99.90;;;;;;5098691;28;20466;-91
2022/04/29 04:00:11;;;;;;;0.40;0.40;;;4.20;99.90;;;;;;5101061;28;20462;-91
2022/04/29 04:02:39;;;;;;;0.30;0.20;;;4.20;99.90;;;;;;5096879;28;20475;-91
2022/04/29 04:05:06;;;;;;;0.30;0.20;;;4.20;99.90;;;;;;5098936;28;20507;-91
2022/04/29 04:07:33;;;;;;;0.30;0.10;;;4.30;99.90;;;;;;5105059;28;20487;-91
2022/04/29 04:10:01;;;;;;;0.30;0.10;;;4.30;99.90;;;;;;5124037;28;20450;-91
2022/04/29 04:12:39;;;;;;;0.40;0.20;;;4.30;99.90;;;;;;5118278;28;20462;-91
2022/04/29 04:15:07;;;;;;;0.60;0.50;;;4.50;99.90;;;;;;5117294;28;20474;-91
2022/04/29 04:17:34;;;;;;;0.40;0.27;;;4.50;99.90;;;;;;5126518;28;20513;-91
2022/04/29 04:20:01;;;;;;;0.40;0.30;;;4.50;99.90;;;;;;5119858;28;20463;-91
2022/04/29 04:22:29;;;;;;;0.30;0.17;;;4.60;99.90;;;;;;5105918;28;20450;-91
2022/04/29 04:24:59;;;;;;;0.40;0.40;;;4.70;99.90;;;;;;5096222;28;20471;-91
2022/04/29 04:27:26;;;;;;;0.30;0.20;;;4.80;99.90;;;;;;5094253;28;20493;-91
2022/04/29 04:29:54;;;;;;;0.30;0.20;;;4.90;99.90;;;;;;5096959;28;20523;-91
2022/04/29 04:32:21;;;;;;;0.30;0.20;;;5.00;99.90;;;;;;5099228;28;20465;-91
2022/04/29 04:34:51;;;;;;;0.83;0.83;;;5.20;99.90;;;;;;5096357;28;20465;-91
2022/04/29 04:37:19;;;;;;;0.30;0.20;;;5.30;99.90;;;;;;5101116;28;20466;-91
2022/04/29 04:39:46;;;;;;;0.30;0.10;;;5.40;99.90;;;;;;5091580;28;20487;-91
2022/04/29 04:42:13;;;;;;;0.30;0.10;;;5.60;99.90;;;;;;5092265;28;20450;-91
2022/04/29 04:44:40;;;;;;;0.30;0.10;;;5.60;99.90;;;;;;5090238;28;20471;-91
2022/04/29 04:47:09;;;;;;;0.40;0.33;;;5.70;99.90;;;;;;5094389;28;20485;-91
2022/04/29 04:49:36;;;;;;;0.60;0.60;;;5.70;99.90;;;;;;5090664;28;20459;-91
2022/04/29 04:52:04;;;;;;;0.30;0.20;;;5.60;99.90;;;;;;5097939;28;20465;-91
2022/04/29 04:54:31;;;;;;;2.00;0.40;;;5.70;99.90;;;;;;5105182;28;20498;-90
2022/04/29 04:56:58;;;;;;;0.70;0.30;;;5.90;99.90;;;;;;5107911;28;20460;-91
2022/04/29 04:59:25;;;;;;;0.30;0.20;;;6.00;99.90;;;;;;5096927;28;20495;-91
2022/04/29 05:01:53;;;;;;;0.40;0.30;;;6.20;99.90;;;;;;5096196;28;20530;-91
2022/04/29 05:04:22;;;;;;;0.40;0.20;;;6.10;99.90;;;;;;5106058;28;20547;-91
2022/04/29 05:06:49;;;;;;;0.30;0.20;;;6.10;99.90;;;;;;5100364;28;20490;-90
2022/04/29 05:09:16;;;;;;;0.40;0.20;;;6.20;99.90;;;;;;5100737;28;20523;-91
2022/04/29 05:11:43;;;;;;;0.30;0.20;;;6.40;99.90;;;;;;5093631;28;20464;-92
2022/04/29 05:14:10;;;;;;;0.70;0.70;;;6.50;99.90;;;;;;5096965;28;20500;-92
2022/04/29 05:16:37;;;;;;;0.30;0.10;;;6.40;99.90;;;;;;5095830;28;20467;-93
2022/04/29 05:19:04;;;;;;;0.30;0.20;;;6.60;99.90;;;;;;5111870;28;20470;-92
2022/04/29 05:21:33;;;;;;;0.30;0.10;;;6.70;99.90;;;;;;5116303;28;20463;-92
2022/04/29 05:24:00;;;;;;;0.30;0.20;;;6.60;99.90;;;;;;5121786;28;20468;-91
2022/04/29 05:26:27;;;;;;;0.30;0.10;;;6.50;99.90;;;;;;5110978;28;20490;-91
2022/04/29 05:28:54;;;;;;;0.40;0.30;;;6.60;99.90;;;;;;5092415;28;20474;-91
2022/04/29 05:31:21;;;;;;;0.30;0.10;;;6.60;99.90;;;;;;5098222;28;20463;-91
2022/04/29 05:33:48;;;;;;;0.70;0.70;;;6.80;99.90;;;;;;5092179;28;20468;-91
2022/04/29 05:36:15;;;;;;;0.30;0.10;;;7.00;99.90;;;;;;5095739;28;20460;-91
2022/04/29 05:44:14;;;;;;;0.40;0.30;;;6.90;99.90;;;;;;5089816;28;20456;-93
2022/04/29 05:46:41;;;;;;;4.43;0.77;;;7.20;99.90;;;;;;5094821;28;20964;-90
2022/04/29 05:49:08;;;;;;;0.30;0.10;;;7.30;99.90;;;;;;5087418;28;20458;-90
2022/04/29 05:51:35;;;;;;;0.50;0.30;;;7.50;99.90;;;;;;5089779;28;21097;-91
2022/04/29 05:54:04;;;;;;;0.83;0.30;;;7.50;99.90;;;;;;5090594;28;20497;-91
2022/04/29 05:56:32;;;;;;;0.30;0.20;;;7.70;99.90;;;;;;5097630;28;20456;-91
2022/04/29 05:58:59;;;;;;;0.30;0.10;;;7.70;99.90;;;;;;5090016;28;20457;-90
2022/04/29 06:01:26;;;;;;;0.67;0.30;;;7.70;99.90;;;;;;5103370;28;20507;-91
2022/04/29 06:03:53;;;;;;;1.00;0.50;;;8.10;99.90;;;;;;5109813;28;20465;-91
2022/04/29 06:06:20;;;;;;;0.30;0.10;;;8.10;99.90;;;;;;5121068;28;20450;-90
2022/04/29 06:08:46;;;;;;;0.30;0.20;;;8.10;99.90;;;;;;5117002;28;20447;-91
2022/04/29 06:11:15;;;;;;;0.30;0.20;;;8.00;99.90;;;;;;5111069;28;20450;-91
2022/04/29 06:13:42;;;;;;;0.40;0.30;;;8.30;99.90;;;;;;5108869;28;20802;-90
2022/04/29 06:16:10;;;;;;;0.30;0.20;;;8.40;99.90;;;;;;5097902;28;20523;-91
2022/04/29 06:18:37;;;;;;;0.30;0.20;;;8.50;99.90;;;;;;5092607;28;20530;-91
2022/04/29 06:21:05;;;;;;;0.50;0.30;;;8.50;99.90;;;;;;5090685;28;20734;-91
2022/04/29 06:23:32;;;;;;;0.40;0.40;;;8.70;99.90;;;;;;5103879;28;20450;-91
2022/04/29 06:25:59;;;;;;;0.30;0.30;;;8.90;99.90;;;;;;5124889;28;20471;-91
2022/04/29 06:28:27;;;;;;;0.40;0.20;;;9.20;99.90;;;;;;5110825;28;20542;-90
2022/04/29 06:30:54;;;;;;;0.30;0.20;;;9.40;99.90;;;;;;5109249;28;20492;-90
2022/04/29 06:33:21;;;;;;;0.30;0.17;;;9.30;99.90;;;;;;5090115;28;20764;-90
2022/04/29 06:35:49;;;;;;;0.97;0.97;;;9.60;99.90;;;;;;5099633;28;20544;-90
2022/04/29 06:38:17;;;;;;;0.33;0.27;;;9.80;99.90;;;;;;5103108;28;20571;-90
2022/04/29 06:40:44;;;;;;;1.23;1.13;;;10.00;99.90;;;;;;5096709;28;20467;-90
2022/04/29 06:43:11;;;;;;;0.30;0.20;;;10.10;99.90;;;;;;5093147;28;20470;-90
2022/04/29 06:45:39;;;;;;;0.30;0.20;;;10.30;99.90;;;;;;5094794;27;20511;-91
2022/04/29 06:48:08;;;;;;;0.30;0.20;;;10.50;99.90;;;;;;5092226;28;20590;-91
2022/04/29 06:50:35;;;;;;;0.40;0.30;;;10.50;99.90;;;;;;5110836;28;20454;-91
2022/04/29 06:53:02;;;;;;;0.80;0.70;;;10.70;99.90;;;;;;5123656;28;20431;-91
2022/04/29 06:55:29;;;;;;;0.30;0.20;;;11.00;99.90;;;;;;5112033;28;20463;-91
2022/04/29 06:57:56;;;;;;;0.40;0.20;;;11.10;99.90;;;;;;5115314;28;20443;-91
2022/04/29 07:00:23;;;;;;;0.30;0.20;;;10.70;99.90;;;;;;5114291;28;20436;-90
2022/04/29 07:02:52;;;;;;;3.17;0.50;;;11.10;99.90;;;;;;5116382;28;20447;-90
2022/04/29 07:05:19;;;;;;;0.40;0.20;;;11.00;99.90;;;;;;5113443;28;20463;-91
2022/04/29 07:07:49;;;;;;;0.73;0.60;;;11.00;99.90;;;;;;5093685;28;20481;-91
2022/04/29 07:10:16;;;;;;;0.30;0.20;;;11.10;99.90;;;;;;5103056;28;20470;-91
2022/04/29 07:12:44;;;;;;;0.30;0.23;;;11.10;99.90;;;;;;5108997;28;20516;-91
2022/04/29 07:15:11;;;;;;;0.33;0.20;;;11.40;99.90;;;;;;5106371;27;20445;-90
2022/04/29 07:17:38;;;;;;;0.30;0.17;;;11.20;99.90;;;;;;5097703;28;20504;-90
2022/04/29 07:20:10;;;;;;;0.30;0.30;;;11.30;99.90;;;;;;5090558;28;20491;-91
2022/04/29 07:22:38;;;;;;;1.03;1.03;;;11.20;99.90;;;;;;5106131;28;20466;-91
2022/04/29 07:25:06;;;;;;;0.30;0.20;;;11.40;99.90;;;;;;5111588;28;20450;-91
2022/04/29 07:27:33;;;;;;;0.40;0.20;;;11.70;99.90;;;;;;5109566;27;20483;-91
2022/04/29 07:30:00;;;;;;;2.53;0.43;;;12.00;99.90;;;;;;5106690;28;20463;-91
2022/04/29 07:32:28;;;;;;;0.30;0.20;;;12.00;99.90;;;;;;5108031;28;20459;-91
2022/04/29 07:43:11;;;;;;;0.57;0.57;;;12.80;98.60;;;;;;5093344;28;20497;-92
2022/04/29 07:45:39;;;;;;;0.40;0.30;;;13.10;98.30;;;;;;5091020;28;20477;-92
2022/04/29 07:48:07;;;;;;;0.50;0.50;;;12.90;97.70;;;;;;5107304;28;20495;-92
2022/04/29 07:50:35;;;;;;;0.40;0.20;;;13.00;97.90;;;;;;5091768;28;20461;-92
2022/04/29 07:53:05;;;;;;;0.30;0.20;;;13.10;97.70;;;;;;5096854;27;20501;-93
2022/04/29 07:55:32;;;;;;;0.40;0.40;;;13.40;96.60;;;;;;5093348;28;20815;-91
2022/04/29 07:57:59;;;;;;;0.57;0.30;;;13.50;95.80;;;;;;5091218;28;20839;-93
2022/04/29 08:00:26;;;;;;;0.30;0.20;;;13.40;94.90;;;;;;5089547;28;21099;-92
2022/04/29 08:02:54;;;;;;;0.30;0.20;;;13.30;94.60;;;;;;5092220;28;20469;-92
2022/04/29 08:05:21;;;;;;;0.40;0.30;;;13.70;97.90;;;;;;5091611;28;20465;-92
2022/04/29 08:07:48;;;;;;;0.30;0.20;;;13.40;93.90;;;;;;5093565;28;20492;-93
2022/04/29 08:10:17;;;;;;;1.07;0.37;;;13.50;94.50;;;;;;5085893;28;20498;-90
2022/04/29 08:12:44;;;;;;;0.40;0.30;;;13.80;96.50;;;;;;5087918;28;20470;-90
2022/04/29 08:15:11;;;;;;;0.53;0.50;;;14.10;96.70;;;;;;5088902;28;20460;-90
2022/04/29 08:17:39;;;;;;;0.40;0.30;;;14.20;99.40;;;;;;5088230;28;20463;-90
2022/04/29 08:20:08;;;;;;;0.40;0.30;;;14.20;96.10;;;;;;5087358;28;20561;-90
2022/04/29 08:22:36;;;;;;;2.63;0.80;;;14.20;97.20;;;;;;5083646;28;20474;-92
2022/04/29 08:25:04;;;;;;;0.60;0.60;;;14.20;97.10;;;;;;5088305;28;20509;-93
2022/04/29 08:27:32;;;;;;;1.20;0.50;;;14.20;98.90;;;;;;5090801;28;20479;-93
2022/04/29 08:29:59;;;;;;;3.03;0.43;;;14.40;96.90;;;;;;5091761;27;20994;-92
2022/04/29 08:32:26;;;;;;;0.40;0.30;;;13.80;95.40;;;;;;5089839;27;20471;-90
2022/04/29 08:34:53;;;;;;;0.37;0.30;;;13.80;96.90;;;;;;5091301;27;20462;-92
2022/04/29 08:37:20;;;;;;;0.40;0.30;;;13.90;96.60;;;;;;5093253;27;20446;-91
2022/04/29 08:39:47;;;;;;;0.40;0.30;;;14.00;94.60;;;;;;5087909;28;20944;-93
2022/04/29 08:42:18;;;;;;;0.50;0.50;;;14.00;95.00;;;;;;5091333;27;20960;-93
2022/04/29 08:44:47;;;;;;;3.40;0.63;;;14.10;96.40;;;;;;5084896;28;20518;-92
2022/04/29 08:47:15;;;;;;;0.30;0.20;;;14.30;94.50;;;;;;5088976;28;20515;-90
2022/04/29 08:49:42;;;;;;;0.90;0.90;;;14.30;93.10;;;;;;5089076;27;20465;-93
2022/04/29 08:52:14;;;;;;;0.43;0.30;;;14.20;94.50;;;;;;5090884;28;20517;-91
2022/04/29 09:00:16;;;;;;;0.47;0.43;;;14.50;94.30;;;;;;5096752;28;20512;-92
2022/04/29 09:02:44;;;;;;;0.60;0.30;;;14.60;94.30;;;;;;5092467;28;20471;-91
2022/04/29 09:05:12;;;;;;;0.87;0.60;;;14.70;93.40;;;;;;5106396;27;20442;-92
2022/04/29 09:07:54;;;;;;;0.70;0.70;;;15.00;92.90;;;;;;5111142;28;20516;-92
2022/04/29 09:10:21;;;;;;;0.80;0.60;;;15.10;91.70;;;;;;5103451;28;20521;-91
2022/04/29 09:12:48;;;;;;;0.40;0.30;;;15.40;91.20;;;;;;5094239;28;20464;-91
2022/04/29 09:15:18;;;;;;;0.40;0.33;;;16.00;95.10;;;;;;5091955;28;20551;-91
2022/04/29 09:17:46;;;;;;;1.17;0.47;;;16.30;93.00;;;;;;5091680;28;20888;-92
2022/04/29 09:20:16;;;;;;;0.50;0.50;;;16.50;92.80;;;;;;5093633;28;20495;-91
2022/04/29 09:22:47;;;;;;;1.20;0.63;;;16.40;89.10;;;;;;5099572;28;20909;-92
2022/04/29 09:25:16;;;;;;;0.50;0.37;;;16.20;89.40;;;;;;5094390;28;20521;-92
2022/04/29 09:27:59;;;;;;;1.07;0.80;;;16.00;90.30;;;;;;5086937;28;20489;-92
2022/04/29 09:30:39;;;;;;;0.40;0.40;;;15.70;91.30;;;;;;5089703;28;20897;-92
2022/04/29 09:33:08;;;;;;;0.50;0.50;;;15.10;91.70;;;;;;5110927;28;20469;-91
2022/04/29 09:35:39;;;;;;;0.40;0.30;;;15.10;92.70;;;;;;5119283;28;21345;-92
2022/04/29 09:40:52;;;;;;;0.50;0.50;;;15.50;92.20;;;;;;5113861;28;20524;-90
2022/04/29 09:43:35;;;;;;;0.93;0.50;;;15.80;93.40;;;;;;5112566;28;20502;-92
2022/04/29 09:46:15;;;;;;;0.80;0.63;;;16.30;91.60;;;;;;5114913;28;20517;-90
2022/04/29 09:48:52;;;;;;;0.40;0.20;;;16.40;89.40;;;;;;5108465;28;20484;-90
2022/04/29 09:51:55;;;;;;;0.47;0.43;;;16.00;90.70;;;;;;5116201;28;20461;-90
2022/04/29 09:54:25;;;;;;;0.40;0.30;;;16.60;92.00;;;;;;5117078;28;20530;-90
2022/04/29 09:57:10;;;;;;;0.80;0.80;;;16.80;86.10;;;;;;5115567;28;20480;-91
2022/04/29 09:59:40;;;;;;;1.63;0.70;;;16.80;84.60;;;;;;5108074;28;20450;-90
2022/04/29 10:02:10;;;;;;;0.40;0.40;;;16.70;75.60;;;;;;5118040;28;20906;-90
2022/04/29 10:04:41;;;;;;;0.40;0.33;;;17.10;71.60;;;;;;5097479;28;20462;-90
2022/04/29 10:07:10;;;;;;;0.90;0.90;;;17.30;68.60;;;;;;5092791;28;20477;-90
2022/04/29 10:09:40;;;;;;;0.67;0.67;;;17.10;71.00;;;;;;5087695;28;20938;-91
2022/04/29 10:12:13;;;;;;;0.53;0.53;;;17.20;74.10;;;;;;5092230;28;20463;-90
2022/04/29 10:14:41;;;;;;;0.50;0.50;;;17.60;77.20;;;;;;5092212;28;20454;-90
2022/04/29 10:22:49;;;;;;;0.40;0.40;;;17.80;65.40;;;;;;5095338;27;20476;-90
2022/04/29 10:25:19;;;;;;;0.60;0.40;;;17.60;64.60;;;;;;5104747;28;20458;-90
2022/04/29 10:27:48;;;;;;;0.40;0.30;;;17.80;71.20;;;;;;5091165;28;21159;-92
2022/04/29 10:30:19;;;;;;;5.10;0.40;;;18.20;73.50;;;;;;5090765;27;20543;-90
2022/04/29 10:33:06;;;;;;;0.50;0.50;;;18.00;62.20;;;;;;5091816;28;20482;-90
2022/04/29 10:35:57;;;;;;;1.13;0.60;;;18.00;65.00;;;;;;5096933;27;20465;-91
2022/04/29 10:38:26;;;;;;;0.40;0.40;;;17.80;58.40;;;;;;5104396;27;20468;-91
2022/04/29 10:41:14;;;;;;;0.40;0.30;;;17.80;62.20;;;;;;5091095;28;20562;-91
2022/04/29 10:43:44;;;;;;;1.40;0.30;;;18.10;59.70;;;;;;5094579;27;20848;-93
2022/04/29 10:46:22;;;;;;;0.50;0.50;;;18.30;65.20;;;;;;5096308;27;21007;-91
2022/04/29 10:48:52;;;;;;;0.97;0.40;;;18.50;62.40;;;;;;5090894;27;20468;-91
2022/04/29 10:51:21;;;;;;;0.40;0.40;;;18.30;57.80;;;;;;5087054;28;20562;-92
2022/04/29 10:53:50;;;;;;;0.70;0.50;;;18.20;56.70;;;;;;5088885;28;20535;-91
2022/04/29 10:56:38;;;;;;;0.40;0.30;;;18.30;61.20;;;;;;5092618;27;20516;-91
2022/04/29 10:59:22;;;;;;;0.40;0.37;;;18.70;62.40;;;;;;5095449;28;20462;-91
2022/04/29 11:01:51;;;;;;;0.37;0.27;;;18.60;57.80;;;;;;5097512;27;20466;-91
2022/04/29 11:04:45;;;;;;;0.63;0.50;;;18.50;59.00;;;;;;5094309;28;20519;-91
2022/04/29 11:07:37;;;;;;;3.30;0.83;;;18.50;58.50;;;;;;5090702;28;20506;-91
2022/04/29 11:10:06;;;;;;;0.60;0.30;;;18.60;61.30;;;;;;5088387;27;20549;-91
2022/04/29 11:12:34;;;;;;;0.40;0.30;;;18.90;60.60;;;;;;5096697;28;20496;-91
2022/04/29 11:15:12;;;;;;;0.37;0.30;;;18.70;55.30;;;;;;5100952;28;20466;-91
2022/04/29 11:17:40;;;;;;;0.50;0.50;;;18.70;59.10;;;;;;5097424;28;20449;-91
2022/04/29 11:20:20;;;;;;;0.40;0.30;;;18.80;57.00;;;;;;5091395;28;20563;-92
2022/04/29 11:25:54;;;;;;;0.40;0.30;;;18.40;56.70;;;;;;5090936;28;21139;-92
2022/04/29 11:28:22;;;;;;;0.47;0.30;;;18.40;57.80;;;;;;5095337;27;20491;-91
2022/04/29 11:30:50;;;;;;;0.70;0.70;;;18.50;58.00;;;;;;5089204;28;20459;-92
2022/04/29 11:33:23;;;;;;;0.40;0.30;;;18.50;57.20;;;;;;5091227;28;20473;-91
2022/04/29 11:36:03;;;;;;;0.50;0.50;;;18.10;55.60;;;;;;5100110;28;20549;-92
2022/04/29 11:38:32;;;;;;;0.67;0.43;;;18.00;58.50;;;;;;5103721;28;20469;-92
2022/04/29 11:41:01;;;;;;;1.07;0.50;;;18.30;57.70;;;;;;5106227;28;20462;-92
2022/04/29 11:43:29;;;;;;;0.63;0.63;;;18.30;55.50;;;;;;5094746;27;20461;-92
2022/04/29 11:46:05;;;;;;;0.50;0.50;;;18.60;59.40;;;;;;5088803;28;20489;-92
2022/04/29 11:48:35;;;;;;;0.50;0.50;;;18.40;56.10;;;;;;5094414;27;20481;-91
2022/04/29 11:51:05;;;;;;;0.70;0.33;;;18.10;55.40;;;;;;5114136;27;20475;-91
2022/04/29 11:53:33;;;;;;;0.43;0.40;;;18.10;58.70;;;;;;5110722;28;20484;-92
2022/04/29 11:56:00;;;;;;;0.40;0.30;;;18.40;58.70;;;;;;5114923;27;20684;-92
2022/04/29 11:58:32;;;;;;;0.40;0.30;;;18.40;57.10;;;;;;5115853;28;20482;-90
2022/04/29 12:01:01;;;;;;;0.60;0.60;;;17.90;57.40;;;;;;5097166;28;20501;-91
2022/04/29 12:03:28;;;;;;;0.60;0.50;;;18.10;62.60;;;;;;5099292;28;20519;-91
2022/04/29 12:05:55;;;;;;;1.10;0.40;;;18.40;62.20;;;;;;5093224;28;20500;-92
2022/04/29 12:08:24;;;;;;;2.30;0.33;;;18.50;57.60;;;;;;5111826;28;20500;-91
2022/04/29 12:10:51;;;;;;;0.40;0.40;;;18.40;61.80;;;;;;5121014;28;20601;-91
2022/04/29 12:13:21;;;;;;;0.40;0.30;;;18.60;65.30;;;;;;5117542;28;20570;-92
2022/04/29 12:15:54;;;;;;;0.57;0.57;;;18.50;58.00;;;;;;5126669;28;20551;-92
2022/04/29 12:18:37;;;;;;;0.40;0.37;;;18.80;63.00;;;;;;5125734;28;20447;-91
2022/04/29 12:21:04;;;;;;;0.40;0.30;;;18.80;56.10;;;;;;5126233;28;20513;-91
2022/04/29 12:23:34;;;;;;;0.43;0.37;;;18.90;56.50;;;;;;5117350;28;20486;-91
2022/04/29 12:26:02;;;;;;;0.60;0.43;;;18.60;59.60;;;;;;5096859;28;20468;-91
2022/04/29 12:28:34;;;;;;;0.40;0.40;;;18.60;60.70;;;;;;5095719;28;20479;-91
2022/04/29 12:36:48;;;;;;;0.60;0.60;;;19.50;59.80;;;;;;5088911;28;20458;-92
2022/04/29 12:39:21;;;;;;;0.40;0.30;;;19.70;57.90;;;;;;5089878;28;20453;-92
2022/04/29 12:41:58;;;;;;;0.40;0.40;;;19.40;62.30;;;;;;5090688;28;20474;-93
2022/04/29 12:47:22;;;;;;;0.40;0.30;;;18.80;56.20;;;;;;5100427;28;20458;-91
2022/04/29 12:49:49;;;;;;;0.93;0.60;;;18.80;57.50;;;;;;5089484;28;20547;-90
2022/04/29 12:52:16;;;;;;;0.50;0.30;;;19.10;60.50;;;;;;5088302;28;20466;-91
2022/04/29 12:54:45;;;;;;;0.40;0.30;;;18.90;56.20;;;;;;5091818;28;20974;-91
2022/04/29 12:57:12;;;;;;;0.40;0.30;;;18.90;53.20;;;;;;5086839;27;20656;-91
2022/04/29 12:59:39;;;;;;;1.80;0.47;;;18.50;57.30;;;;;;5091233;28;20455;-91
2022/04/29 13:02:07;;;;;;;0.50;0.40;;;18.60;56.80;;;;;;5096534;28;20470;-91
2022/04/29 13:04:35;;;;;;;0.43;0.43;;;18.60;55.30;;;;;;5092772;28;20451;-91
2022/04/29 13:07:02;;;;;;;2.93;0.63;;;18.60;59.00;;;;;;5096509;28;20859;-91
2022/04/29 13:09:29;;;;;;;0.40;0.30;;;18.70;58.20;;;;;;5103678;28;20512;-91
2022/04/29 13:11:57;;;;;;;0.70;0.70;;;18.50;57.00;;;;;;5116802;28;20436;-91
2022/04/29 13:14:24;;;;;;;0.50;0.50;;;18.90;60.10;;;;;;5100815;28;20489;-92
2022/04/29 13:16:51;;;;;;;0.40;0.30;;;18.90;55.20;;;;;;5095358;28;20455;-91
2022/04/29 13:19:18;;;;;;;0.40;0.40;;;19.20;55.20;;;;;;5095904;28;20823;-93
2022/04/29 13:21:45;;;;;;;0.40;0.30;;;19.30;55.50;;;;;;5090319;28;20523;-92
2022/04/29 13:24:12;;;;;;;0.43;0.40;;;19.20;55.40;;;;;;5089207;28;20444;-91
2022/04/29 13:26:39;;;;;;;0.50;0.50;;;19.00;56.40;;;;;;5095377;28;20468;-92
2022/04/29 13:29:08;;;;;;;0.40;0.40;;;19.00;54.40;;;;;;5095561;28;20482;-91
2022/04/29 13:31:35;;;;;;;0.37;0.30;;;19.30;54.70;;;;;;5092027;28;20480;-91
2022/04/29 13:34:02;;;;;;;0.70;0.40;;;19.20;53.90;;;;;;5086917;28;20962;-91
2022/04/29 13:36:29;;;;;;;0.40;0.40;;;19.10;55.90;;;;;;5087142;28;20508;-91
2022/04/29 13:38:57;;;;;;;0.40;0.30;;;19.50;53.80;;;;;;5094226;28;20524;-92
2022/04/29 13:41:24;;;;;;;0.97;0.40;;;19.70;56.00;;;;;;5090555;28;20775;-92
2022/04/29 13:43:50;;;;;;;0.40;0.30;;;19.80;54.90;;;;;;5096719;28;21007;-92